Cebolla, New Mexico
Current Conditions -  °F | °C
As of 10:15 AM on Thursday 23 Oct 2014 (Local Time) from KSKX Reporting Station
Clear Clear  
Wind Chill: 52°   Ceiling: Unl
Heat Index: 52°   Visibility: 10mi
Dew Point: 34°   Wind: 0mph
Humidity: 50%   Direction: NA
Pressure: 30.36"   Gusts: NA
Location:  36.54°N, 106.49°W
Report Text: KSKX 231615Z AUTO 00000KT 10SM CLR 11/01 A3036 RMK AO1
Loading
Personal Weather Stations






























Interactive Weather Map
Tropical Storm Tracking
New forecast layout! Learn more

10-Day Weather Forecast

Advertisements
Track Severe Weather on mobile